Time;durP1;ratioP1;P1;durP2;ratioP2;P2;SDS_P1;SDS_P2;PMS_P1;PMS_P2;Temp;Humidity;BMP_temperature;BMP_pressure;BME280_temperature;BME280_humidity;BME280_pressure;Samples;Min_cycle;Max_cycle;Signal;HPM_P1;HPM_P2
2023/06/12 00:00:47;;;;;;;;;11.00;9.00;;;;;23.65;62.04;100920.34;6161050;23;45934;-67
2023/06/12 00:03:13;;;;;;;;;8.00;8.00;;;;;23.67;61.81;100923.91;6160534;23;44892;-68
2023/06/12 00:05:45;;;;;;;;;18.67;14.67;;;;;23.64;62.13;100921.28;6134607;23;44949;-67
2023/06/12 00:08:13;;;;;;;;;11.00;9.33;;;;;23.62;61.78;100911.34;6161041;23;45235;-68
2023/06/12 00:10:42;;;;;;;;;18.00;15.33;;;;;23.50;62.29;100893.47;6160872;23;45074;-68
2023/06/12 00:13:09;;;;;;;;;11.33;10.33;;;;;23.62;61.99;100914.94;6160511;23;45175;-69
2023/06/12 00:15:35;;;;;;;;;15.33;12.00;;;;;23.60;62.03;100910.50;6159984;23;45148;-67
2023/06/12 00:18:02;;;;;;;;;12.67;12.67;;;;;23.52;62.53;100910.66;6160646;23;45106;-68
2023/06/12 00:20:27;;;;;;;;;14.33;12.67;;;;;23.53;62.25;100913.38;6159710;23;45543;-68
2023/06/12 00:22:53;;;;;;;;;15.00;13.33;;;;;23.55;62.01;100907.88;6160173;23;45036;-67
2023/06/12 00:25:20;;;;;;;;;16.33;12.33;;;;;23.33;62.04;100872.97;6160678;23;45204;-70
2023/06/12 00:27:45;;;;;;;;;13.33;12.33;;;;;23.55;62.13;100916.94;6161068;23;45197;-67
2023/06/12 00:30:11;;;;;;;;;15.33;11.00;;;;;23.56;61.99;100915.13;6159509;23;45484;-67
2023/06/12 00:32:37;;;;;;;;;11.67;10.67;;;;;23.56;61.71;100909.69;6128524;23;45104;-67
2023/06/12 00:35:03;;;;;;;;;14.00;10.67;;;;;23.54;61.16;100903.34;6128501;23;45315;-67
2023/06/12 00:37:29;;;;;;;;;11.00;9.67;;;;;23.52;61.26;100905.22;6131148;23;45469;-68
2023/06/12 00:39:54;;;;;;;;;11.00;10.33;;;;;23.48;60.67;100893.50;6131346;23;45536;-68
2023/06/12 00:42:22;;;;;;;;;9.33;9.33;;;;;23.44;60.58;100896.31;6130566;23;44974;-67
2023/06/12 00:44:47;;;;;;;;;12.00;9.67;;;;;23.34;60.82;100884.75;6130448;23;44927;-68
2023/06/12 00:47:14;;;;;;;;;12.00;10.00;;;;;23.43;60.90;100898.16;6130369;23;45175;-68
2023/06/12 00:49:40;;;;;;;;;10.00;9.00;;;;;23.44;60.48;100902.66;6130312;23;45257;-69
2023/06/12 00:52:11;;;;;;;;;8.00;8.00;;;;;22.70;61.10;100781.75;6130894;23;45627;-68
2023/06/12 00:54:38;;;;;;;;;11.00;9.33;;;;;23.41;60.62;100901.84;6130068;23;45314;-70
2023/06/12 00:57:04;;;;;;;;;17.33;11.33;;;;;23.23;60.70;100871.41;6129380;23;45056;-67
2023/06/12 00:59:31;;;;;;;;;10.00;9.67;;;;;23.39;60.35;100903.72;6131265;23;45042;-67
2023/06/12 01:01:57;;;;;;;;;10.67;9.67;;;;;23.31;60.82;100890.28;6130118;23;45359;-69
2023/06/12 01:04:23;;;;;;;;;13.67;9.00;;;;;23.35;60.75;100902.91;6131493;23;45091;-68
2023/06/12 01:06:55;;;;;;;;;12.00;8.67;;;;;23.33;60.54;100900.22;6131549;23;45229;-68
2023/06/12 01:09:34;;;;;;;;;12.00;10.33;;;;;23.35;60.41;100898.34;6130604;23;45343;-68
2023/06/12 01:12:01;;;;;;;;;10.33;10.33;;;;;23.33;60.51;100900.22;6131208;23;44981;-68
2023/06/12 01:14:26;;;;;;;;;9.00;9.00;;;;;23.31;60.66;100893.91;6131402;23;45032;-66
2023/06/12 01:16:52;;;;;;;;;8.00;8.00;;;;;23.30;60.16;100896.69;6132274;23;45388;-67
2023/06/12 01:19:19;;;;;;;;;11.00;10.00;;;;;23.27;60.15;100891.28;6131329;23;45527;-68
2023/06/12 01:21:50;;;;;;;;;12.00;10.33;;;;;23.28;60.66;100891.25;6131271;23;44863;-66
2023/06/12 01:24:33;;;;;;;;;15.00;9.00;;;;;23.30;60.38;100891.22;6131651;23;45000;-68
2023/06/12 01:27:10;;;;;;;;;8.00;8.00;;;;;23.30;60.32;100889.38;6131428;23;45278;-68
2023/06/12 01:29:57;;;;;;;;;11.67;10.00;;;;;23.27;60.36;100883.13;6130857;23;45442;-67
2023/06/12 01:32:24;;;;;;;;;13.00;8.00;;;;;23.27;60.00;100878.56;6138496;23;45131;-69
2023/06/12 01:35:05;;;;;;;;;11.67;8.00;;;;;23.26;60.12;100887.66;6161796;23;45283;-68
2023/06/12 01:37:53;;;;;;;;;9.00;9.00;;;;;23.20;60.56;100866.00;6160277;23;45103;-69
2023/06/12 01:40:19;;;;;;;;;8.67;6.00;;;;;23.16;60.45;100864.28;6160303;23;46366;-67
2023/06/12 01:42:45;;;;;;;;;10.00;9.67;;;;;23.07;59.97;100840.88;6161876;23;45030;-68
2023/06/12 01:45:11;;;;;;;;;10.33;8.33;;;;;23.22;59.57;100866.88;6161032;23;44935;-67
2023/06/12 01:47:36;;;;;;;;;11.33;11.00;;;;;23.21;59.58;100864.19;6162007;23;45239;-67
2023/06/12 01:50:03;;;;;;;;;13.00;9.33;;;;;23.22;59.19;100883.22;6161446;23;45108;-67
2023/06/12 01:52:29;;;;;;;;;11.00;7.00;;;;;23.15;59.14;100870.69;6161688;23;45085;-68
2023/06/12 01:54:58;;;;;;;;;7.67;6.67;;;;;22.98;59.03;100843.78;6160828;23;45078;-67
2023/06/12 01:57:23;;;;;;;;;11.00;7.33;;;;;23.17;59.61;100885.16;6161392;23;45005;-67
2023/06/12 01:59:49;;;;;;;;;11.33;10.00;;;;;22.98;59.72;100851.94;6159256;23;45730;-67
2023/06/12 02:02:15;;;;;;;;;10.33;7.33;;;;;23.16;59.86;100886.09;6160750;23;45068;-67
2023/06/12 02:04:41;;;;;;;;;6.67;4.67;;;;;23.16;59.94;100886.09;6134593;23;45142;-67
2023/06/12 02:07:07;;;;;;;;;13.00;9.33;;;;;23.08;60.25;100879.91;6161218;23;44962;-67
2023/06/12 02:09:32;;;;;;;;;9.00;7.33;;;;;23.06;60.36;100877.19;6161016;23;45554;-67
2023/06/12 02:12:00;;;;;;;;;12.67;11.67;;;;;23.12;60.21;100888.00;6160551;23;45044;-67
2023/06/12 02:14:25;;;;;;;;;9.33;9.33;;;;;22.95;60.26;100862.91;6135607;23;45712;-68
2023/06/12 02:16:56;;;;;;;;;12.33;9.33;;;;;23.09;59.98;100885.34;6161158;23;45092;-68
2023/06/12 02:19:28;;;;;;;;;12.33;9.00;;;;;23.10;59.76;100889.88;6161339;23;45453;-70
2023/06/12 02:21:55;;;;;;;;;14.67;9.00;;;;;22.90;59.80;100857.59;6134861;23;45057;-67
2023/06/12 02:24:29;;;;;;;;;10.00;9.00;;;;;23.08;59.85;100899.00;6160735;23;45091;-68
2023/06/12 02:26:54;;;;;;;;;6.00;6.00;;;;;23.10;60.11;100906.22;6160779;23;45077;-68
2023/06/12 02:29:19;;;;;;;;;9.00;7.00;;;;;23.09;60.26;100914.44;6160541;23;45078;-68
2023/06/12 02:31:45;;;;;;;;;12.67;12.67;;;;;23.09;60.37;100917.16;6134754;23;44954;-67
2023/06/12 02:34:10;;;;;;;;;11.33;8.33;;;;;23.01;60.38;100903.66;6162637;23;45175;-69
2023/06/12 02:36:40;;;;;;;;;10.00;9.00;;;;;22.80;60.44;100875.97;6162038;23;44974;-67
2023/06/12 02:39:07;;;;;;;;;16.33;9.00;;;;;22.96;60.72;100902.88;6161508;23;45134;-68
2023/06/12 02:41:32;;;;;;;;;8.67;8.67;;;;;22.97;60.49;100905.56;6160849;23;44982;-67
2023/06/12 02:43:58;;;;;;;;;9.33;8.00;;;;;22.96;60.85;100902.88;6134965;23;45107;-66
2023/06/12 02:46:23;;;;;;;;;10.33;10.00;;;;;22.99;60.73;100906.41;6161606;23;45019;-68
2023/06/12 02:48:48;;;;;;;;;13.33;10.33;;;;;22.98;60.88;100911.91;6160951;23;45681;-68
2023/06/12 02:51:14;;;;;;;;;12.33;10.33;;;;;22.90;60.95;100893.00;6160635;23;44958;-68
2023/06/12 02:53:39;;;;;;;;;10.67;10.67;;;;;22.94;61.11;100894.72;6161456;23;45896;-68
2023/06/12 02:56:06;;;;;;;;;14.33;13.00;;;;;22.95;61.43;100895.59;6162566;23;45230;-66
2023/06/12 02:58:33;;;;;;;;;12.67;11.00;;;;;22.75;61.31;100857.91;6164031;23;45456;-67
2023/06/12 03:00:58;;;;;;;;;19.67;16.67;;;;;22.87;61.43;100879.47;6160779;23;45315;-68
2023/06/12 03:03:25;;;;;;;;;14.33;12.33;;;;;22.84;61.69;100882.25;6160704;23;45124;-68
2023/06/12 03:05:50;;;;;;;;;12.67;12.67;;;;;22.72;61.76;100861.63;6162365;23;44956;-68
2023/06/12 03:08:16;;;;;;;;;10.00;10.00;;;;;22.84;61.81;100881.34;6162451;23;46488;-66
2023/06/12 03:10:43;;;;;;;;;14.67;14.00;;;;;22.75;61.88;100877.00;6162101;23;45039;-68
2023/06/12 03:13:08;;;;;;;;;11.00;10.00;;;;;22.80;61.47;100889.59;6162124;23;44858;-68
2023/06/12 03:15:34;;;;;;;;;10.33;10.00;;;;;22.71;61.49;100884.34;6162890;23;45090;-67
2023/06/12 03:18:00;;;;;;;;;12.00;11.00;;;;;22.77;61.40;100886.94;6160295;23;45350;-67
2023/06/12 03:20:27;;;;;;;;;12.00;9.67;;;;;22.75;61.69;100885.16;6162109;23;45080;-68
2023/06/12 03:22:53;;;;;;;;;16.33;11.67;;;;;22.76;61.63;100887.84;6162462;23;45069;-69
2023/06/12 03:25:19;;;;;;;;;15.33;12.67;;;;;22.78;61.27;100896.88;6136291;23;45025;-67
2023/06/12 03:27:47;;;;;;;;;8.67;8.67;;;;;22.65;61.51;100879.00;6162306;23;46124;-67
2023/06/12 03:30:13;;;;;;;;;10.67;10.33;;;;;22.68;61.60;100884.41;6162314;23;45012;-67
2023/06/12 03:32:38;;;;;;;;;15.00;12.33;;;;;22.77;61.39;100896.94;6148940;23;45322;-67
2023/06/12 03:35:04;;;;;;;;;13.33;10.33;;;;;22.60;61.11;100873.69;6123867;23;45476;-68
2023/06/12 03:37:30;;;;;;;;;10.67;10.67;;;;;22.76;61.03;100904.19;6150773;23;45617;-70
2023/06/12 03:39:55;;;;;;;;;10.67;10.67;;;;;22.71;60.78;100899.78;6150429;23;45488;-67
2023/06/12 03:42:21;;;;;;;;;15.33;12.33;;;;;22.74;60.85;100906.06;6150861;23;45268;-67
2023/06/12 03:44:46;;;;;;;;;11.00;11.00;;;;;22.56;60.69;100879.22;6150421;23;45441;-67
2023/06/12 03:47:12;;;;;;;;;14.33;9.33;;;;;22.68;60.58;100899.84;6150284;23;45519;-67
2023/06/12 03:49:39;;;;;;;;;36.25;33.50;;;;;22.69;60.39;100907.09;6149376;23;45282;-68
2023/06/12 03:52:05;;;;;;;;;21.00;18.00;;;;;22.66;60.46;100904.44;6148858;23;45236;-67
2023/06/12 03:54:31;;;;;;;;;22.33;17.67;;;;;22.65;60.62;100895.34;6148994;23;45614;-66
2023/06/12 03:56:56;;;;;;;;;13.67;13.67;;;;;22.67;60.69;100895.31;6148839;23;45501;-67
2023/06/12 03:59:22;;;;;;;;;10.33;10.33;;;;;22.68;60.71;100906.19;6149552;23;45325;-69
2023/06/12 04:01:48;;;;;;;;;12.00;10.00;;;;;22.57;60.66;100898.25;6149858;23;45303;-71
2023/06/12 04:04:14;;;;;;;;;14.33;11.67;;;;;22.71;60.69;100913.41;6150648;23;45287;-67
2023/06/12 04:06:40;;;;;;;;;16.00;10.33;;;;;22.73;60.43;100909.72;6148533;23;45387;-67
2023/06/12 04:09:09;;;;;;;;;14.67;12.67;;;;;22.60;60.51;100884.59;6149331;23;45399;-67
2023/06/12 04:11:38;;;;;;;;;12.67;10.33;;;;;22.14;60.79;100803.84;6148388;23;45508;-69
2023/06/12 04:14:04;;;;;;;;;22.67;15.00;;;;;22.68;61.04;100903.47;6148754;23;45312;-68
2023/06/12 04:16:29;;;;;;;;;15.67;13.00;;;;;22.59;61.58;100887.34;6148623;23;45382;-68
2023/06/12 04:18:56;;;;;;;;;9.67;9.67;;;;;22.66;61.97;100902.59;6149605;23;45580;-67
2023/06/12 04:21:21;;;;;;;;;17.67;16.00;;;;;22.64;61.92;100894.47;6150744;23;45518;-68
2023/06/12 04:23:47;;;;;;;;;15.33;12.00;;;;;22.59;62.23;100885.50;6150038;23;45453;-68
2023/06/12 04:26:15;;;;;;;;;18.33;14.00;;;;;22.62;62.47;100898.19;6149387;23;46524;-68
2023/06/12 04:28:46;;;;;;;;;14.67;13.33;;;;;22.60;62.59;100891.84;6147844;23;45310;-68
2023/06/12 04:31:15;;;;;;;;;18.33;13.33;;;;;22.61;63.08;100894.53;6149501;23;45411;-67
2023/06/12 04:33:41;;;;;;;;;22.33;17.67;;;;;22.51;62.84;100876.59;6150415;23;45490;-68
2023/06/12 04:36:07;;;;;;;;;17.33;13.33;;;;;22.56;62.61;100885.56;6150647;23;45404;-67
2023/06/12 04:38:38;;;;;;;;;15.00;13.33;;;;;22.64;62.68;100889.03;6124565;23;45517;-69
2023/06/12 04:41:05;;;;;;;;;17.67;15.33;;;;;22.62;62.46;100876.38;6149871;23;45537;-67
2023/06/12 04:43:31;;;;;;;;;12.67;11.33;;;;;22.66;61.85;100897.16;6150876;23;45544;-67
2023/06/12 04:45:57;;;;;;;;;14.00;14.00;;;;;22.64;62.03;100896.31;6150559;23;45709;-67
2023/06/12 04:48:23;;;;;;;;;16.67;13.67;;;;;22.60;62.12;100892.75;6151034;23;45274;-67
2023/06/12 04:50:50;;;;;;;;;14.33;14.33;;;;;22.61;62.12;100905.41;6123257;23;45340;-67
2023/06/12 04:53:19;;;;;;;;;14.00;14.00;;;;;22.53;62.01;100901.06;6150690;23;45450;-67
2023/06/12 04:55:50;;;;;;;;;16.67;12.33;;;;;22.38;62.64;100903.16;6151500;23;45364;-68
2023/06/12 04:58:17;;;;;;;;;19.33;14.00;;;;;22.31;63.20;100906.94;6150789;23;45259;-67
2023/06/12 05:00:44;;;;;;;;;10.00;6.00;;;;;22.34;63.32;100911.41;6150671;23;45570;-67
2023/06/12 05:03:10;;;;;;;;;19.67;11.67;;;;;22.12;63.05;100867.38;6148952;23;45596;-67
2023/06/12 05:05:35;;;;;;;;;20.00;14.00;;;;;22.37;63.63;100905.91;6149482;23;45399;-68
2023/06/12 05:08:01;;;;;;;;;16.67;10.00;;;;;22.37;63.63;100908.66;6150057;23;45246;-67
2023/06/12 05:10:26;;;;;;;;;14.67;14.67;;;;;22.34;63.25;100886.94;6150095;23;45347;-68
2023/06/12 05:12:51;;;;;;;;;32.50;26.50;;;;;22.45;62.82;100901.22;6151217;23;45444;-67
2023/06/12 05:15:17;;;;;;;;;13.00;13.00;;;;;22.40;62.54;100898.59;6124372;23;47423;-67
2023/06/12 05:17:42;;;;;;;;;16.00;14.67;;;;;22.44;62.96;100903.06;6149962;23;45335;-68
2023/06/12 05:20:08;;;;;;;;;13.67;12.67;;;;;22.50;62.58;100906.56;6150321;23;45420;-68
2023/06/12 05:22:34;;;;;;;;;21.00;14.33;;;;;22.55;62.28;100907.38;6149471;23;45391;-68
2023/06/12 05:25:00;;;;;;;;;16.00;14.33;;;;;22.37;62.01;100886.88;6124260;23;46939;-68
2023/06/12 05:27:25;;;;;;;;;18.67;13.33;;;;;22.41;62.02;100918.56;6160705;23;44954;-68
2023/06/12 05:29:50;;;;;;;;;10.00;10.00;;;;;22.35;62.59;100916.84;6162196;23;45613;-68
2023/06/12 05:32:17;;;;;;;;;22.00;16.67;;;;;22.39;62.31;100914.94;6161430;23;45513;-68
2023/06/12 05:34:42;;;;;;;;;11.33;11.33;;;;;22.37;62.26;100897.75;6160929;23;45664;-68
2023/06/12 05:37:07;;;;;;;;;15.00;10.00;;;;;22.37;62.19;100890.50;6160937;23;44898;-66
2023/06/12 05:39:34;;;;;;;;;20.00;16.00;;;;;22.53;61.65;100904.69;6160653;23;45395;-67
2023/06/12 05:41:59;;;;;;;;;19.00;15.67;;;;;22.20;61.62;100858.13;6134814;23;45110;-67
2023/06/12 05:44:25;;;;;;;;;17.33;15.00;;;;;22.29;61.91;100888.84;6157558;23;45640;-68
2023/06/12 05:46:52;;;;;;;;;12.00;10.33;;;;;22.22;62.36;100891.69;6158725;23;45426;-72
2023/06/12 05:49:18;;;;;;;;;16.00;13.67;;;;;22.28;62.30;100909.69;6135594;23;45224;-62
2023/06/12 05:51:43;;;;;;;;;16.00;12.00;;;;;22.30;62.29;100915.16;6134980;23;45419;-61
2023/06/12 05:54:08;;;;;;;;;17.00;15.00;;;;;22.21;62.17;100898.03;6157926;23;45125;-64
2023/06/12 05:56:34;;;;;;;;;47.50;34.75;;;;;22.35;62.22;100916.84;6153179;23;55979;-62
2023/06/12 05:58:59;;;;;;;;;27.00;17.67;;;;;22.22;61.85;100880.78;6151845;23;45205;-65
2023/06/12 06:01:25;;;;;;;;;16.67;14.33;;;;;22.50;61.37;100918.34;6153404;23;45563;-64
2023/06/12 06:03:51;;;;;;;;;19.00;10.67;;;;;22.49;61.26;100916.59;6126768;23;47548;-63
2023/06/12 06:06:16;;;;;;;;;14.67;11.67;;;;;22.51;61.07;100914.72;6150737;23;45211;-63
2023/06/12 06:08:42;;;;;;;;;13.00;13.00;;;;;22.53;61.04;100917.41;6160468;23;44852;-63
2023/06/12 06:11:09;;;;;;;;;17.67;14.00;;;;;22.48;60.95;100895.72;6161668;23;45048;-65
2023/06/12 06:13:35;;;;;;;;;8.67;8.67;;;;;22.50;60.54;100902.03;6161063;23;46090;-67
2023/06/12 06:16:04;;;;;;;;;14.67;14.67;;;;;22.52;60.56;100902.91;6134458;23;45007;-67
2023/06/12 06:18:29;;;;;;;;;12.67;12.33;;;;;22.68;60.22;100919.81;6153520;23;45202;-65
2023/06/12 06:20:55;;;;;;;;;15.67;12.67;;;;;22.68;60.51;100929.81;6158547;23;45272;-67
2023/06/12 06:23:21;;;;;;;;;16.33;13.33;;;;;22.69;60.31;100926.16;6151103;23;45752;-71
2023/06/12 06:25:47;;;;;;;;;20.00;14.67;;;;;22.59;60.00;100909.13;6155541;23;45244;-72
2023/06/12 06:28:13;;;;;;;;;17.00;14.33;;;;;22.75;60.23;100926.03;6154613;23;45448;-69
2023/06/12 06:30:38;;;;;;;;;18.33;13.00;;;;;22.81;59.94;100929.50;6122837;23;45287;-72
2023/06/12 06:33:04;;;;;;;;;16.67;13.33;;;;;22.83;59.32;100924.03;6153011;23;45991;-70
2023/06/12 06:35:29;;;;;;;;;19.00;12.00;;;;;22.85;59.37;100927.63;6160553;23;45266;-72
2023/06/12 06:37:55;;;;;;;;;15.67;15.00;;;;;22.88;59.31;100919.38;6156194;23;45776;-69
2023/06/12 06:40:21;;;;;;;;;12.67;10.00;;;;;22.87;59.10;100909.44;6159500;23;45549;-70
2023/06/12 06:42:46;;;;;;;;;11.33;10.67;;;;;22.92;59.09;100904.78;6134601;23;47151;-66
2023/06/12 06:45:12;;;;;;;;;17.00;16.33;;;;;23.03;58.92;100917.25;6157573;23;45204;-71
2023/06/12 06:47:37;;;;;;;;;11.00;8.67;;;;;23.04;58.93;100913.59;6150046;23;45390;-66
2023/06/12 06:50:03;;;;;;;;;13.00;12.67;;;;;23.10;58.80;100914.41;6145755;23;45391;-69
2023/06/12 06:52:28;;;;;;;;;10.33;10.33;;;;;23.19;58.46;100922.34;6147099;23;45561;-71
2023/06/12 06:54:53;;;;;;;;;13.67;9.67;;;;;22.80;58.02;100853.25;6121567;23;45289;-69
2023/06/12 06:57:20;;;;;;;;;11.67;10.00;;;;;23.18;57.76;100920.56;6147083;23;53349;-68
2023/06/12 06:59:45;;;;;;;;;9.33;9.33;;;;;22.64;57.86;100809.16;6148596;23;45344;-68
2023/06/12 07:02:11;;;;;;;;;17.33;12.00;;;;;23.15;57.61;100878.84;6148157;23;46308;-69
2023/06/12 07:04:36;;;;;;;;;8.33;8.33;;;;;23.36;57.36;100915.59;6160067;23;45201;-68
2023/06/12 07:07:03;;;;;;;;;14.67;11.33;;;;;23.36;57.34;100919.25;6155999;23;45130;-68
2023/06/12 07:09:28;;;;;;;;;8.00;8.00;;;;;23.22;57.21;100906.88;6146819;23;45509;-66
2023/06/12 07:11:54;;;;;;;;;9.67;9.00;;;;;23.17;57.37;100894.22;6147129;23;45812;-65
2023/06/12 07:14:19;;;;;;;;;13.00;12.00;;;;;23.23;57.02;100900.47;6146441;23;45405;-67
2023/06/12 07:16:45;;;;;;;;;16.00;13.67;;;;;23.33;56.96;100916.56;6147593;23;45485;-67
2023/06/12 07:19:10;;;;;;;;;13.00;10.33;;;;;23.19;57.39;100891.47;6147711;23;45358;-72
2023/06/12 07:21:36;;;;;;;;;13.00;11.33;;;;;23.25;57.20;100887.72;6147659;23;46326;-68
2023/06/12 07:24:03;;;;;;;;;11.67;11.67;;;;;23.54;57.00;100925.16;6146930;23;45340;-69
2023/06/12 07:26:28;;;;;;;;;15.33;12.33;;;;;23.62;56.70;100923.13;6147993;23;45288;-70
2023/06/12 07:28:54;;;;;;;;;11.67;10.67;;;;;23.32;56.73;100871.16;6148135;23;45329;-68
2023/06/12 07:31:20;;;;;;;;;15.00;8.33;;;;;23.54;56.75;100916.97;6147726;23;46260;-66
2023/06/12 07:33:46;;;;;;;;;11.67;11.33;;;;;23.48;57.03;100926.22;6120966;23;45390;-68
2023/06/12 07:36:11;;;;;;;;;12.67;9.33;;;;;23.51;56.93;100920.69;6121485;23;45354;-69
2023/06/12 07:38:37;;;;;;;;;12.33;10.67;;;;;23.55;56.79;100907.88;6149289;23;45340;-67
2023/06/12 07:41:03;;;;;;;;;9.67;9.67;;;;;23.68;56.87;100922.09;6147859;23;46220;-68
2023/06/12 07:43:32;;;;;;;;;11.00;11.00;;;;;23.70;56.25;100923.84;6147942;23;45470;-69
2023/06/12 07:45:57;;;;;;;;;18.33;15.33;;;;;23.76;56.08;100921.88;6149804;23;45428;-67
2023/06/12 07:48:23;;;;;;;;;13.33;11.00;;;;;23.82;55.79;100925.38;6160239;23;45105;-68
2023/06/12 07:50:50;;;;;;;;;11.33;11.33;;;;;23.78;55.45;100926.38;6125115;23;46779;-69
2023/06/12 07:53:15;;;;;;;;;9.33;9.00;;;;;23.84;55.65;100923.53;6148209;23;45276;-66
2023/06/12 07:55:40;;;;;;;;;14.33;11.67;;;;;23.87;55.94;100923.47;6152299;23;45153;-67
2023/06/12 07:58:08;;;;;;;;;13.00;9.00;;;;;23.81;55.38;100907.22;6150086;23;45170;-66
2023/06/12 08:00:35;;;;;;;;;8.00;7.33;;;;;23.90;55.49;100906.97;6149063;23;46285;-67
2023/06/12 08:03:03;;;;;;;;;45.50;37.00;;;;;23.93;54.90;100916.94;6148749;23;45669;-67
2023/06/12 08:05:29;;;;;;;;;23.00;23.00;;;;;23.95;55.35;100905.97;6148102;23;45219;-66
2023/06/12 08:07:54;;;;;;;;;20.00;15.33;;;;;24.01;54.83;100908.56;6148848;23;45285;-69
2023/06/12 08:10:20;;;;;;;;;14.67;11.67;;;;;24.12;54.67;100917.31;6147864;23;45187;-65
2023/06/12 08:12:45;;;;;;;;;22.67;16.00;;;;;24.14;54.71;100920.00;6148328;23;45346;-68
2023/06/12 08:15:11;;;;;;;;;16.67;11.67;;;;;24.19;54.34;100923.53;6147471;23;45236;-67
2023/06/12 08:17:41;;;;;;;;;15.00;13.00;;;;;24.24;54.28;100922.47;6148551;23;45418;-66
2023/06/12 08:20:10;;;;;;;;;13.67;11.00;;;;;24.27;54.42;100907.84;6146640;23;47371;-68
2023/06/12 08:22:38;;;;;;;;;15.67;11.67;;;;;24.28;54.00;100902.31;6120878;23;45323;-66
2023/06/12 08:25:04;;;;;;;;;10.33;10.33;;;;;24.34;53.64;100901.25;6148028;23;45428;-67
2023/06/12 08:27:30;;;;;;;;;12.00;9.00;;;;;24.36;54.13;100898.50;6147141;23;45293;-67
2023/06/12 08:29:55;;;;;;;;;19.00;13.00;;;;;23.84;54.25;100791.66;6147257;23;45637;-65
2023/06/12 08:32:22;;;;;;;;;10.33;10.33;;;;;24.54;54.11;100891.59;6121025;23;45391;-66
2023/06/12 08:34:47;;;;;;;;;16.33;12.00;;;;;24.61;53.52;100887.78;6148256;23;45412;-67
2023/06/12 08:37:12;;;;;;;;;14.67;12.33;;;;;24.64;53.69;100883.09;6149015;23;45450;-66
2023/06/12 08:39:38;;;;;;;;;11.33;11.33;;;;;24.67;53.35;100876.66;6148056;23;45594;-66
2023/06/12 08:42:14;;;;;;;;;14.67;12.33;;;;;24.71;53.59;100882.94;6147561;23;45302;-67
2023/06/12 08:44:42;;;;;;;;;22.67;17.67;;;;;24.78;53.37;100879.06;6146879;23;45324;-65
2023/06/12 08:47:09;;;;;;;;;14.33;13.00;;;;;24.63;53.16;100848.56;6148485;23;45247;-67
2023/06/12 08:49:34;;;;;;;;;12.00;9.33;;;;;24.84;53.39;100877.03;6150186;23;46320;-65
2023/06/12 08:52:02;;;;;;;;;13.00;12.00;;;;;24.38;53.35;100792.84;6144484;23;45309;-65
2023/06/12 08:54:29;;;;;;;;;17.33;13.33;;;;;24.79;52.81;100870.81;6146809;23;45423;-67
2023/06/12 08:56:57;;;;;;;;;17.33;13.67;;;;;24.89;52.98;100890.56;6149084;23;45378;-66
2023/06/12 08:59:22;;;;;;;;;18.00;15.67;;;;;24.93;53.08;100878.59;6147513;23;45352;-67
2023/06/12 09:01:53;;;;;;;;;14.00;12.33;;;;;24.92;53.16;100878.66;6147294;23;45255;-65
2023/06/12 09:04:31;;;;;;;;;14.00;14.00;;;;;24.97;53.50;100891.22;6148617;23;45343;-66
2023/06/12 09:07:01;;;;;;;;;15.50;15.00;;;;;25.00;53.19;100882.03;6146960;23;45426;-67
2023/06/12 09:09:41;;;;;;;;;13.00;9.67;;;;;25.04;53.21;100877.38;6147140;23;46289;-66
2023/06/12 09:12:12;;;;;;;;;18.33;15.33;;;;;24.95;52.77;100859.44;6147501;23;45289;-67
2023/06/12 09:14:38;;;;;;;;;15.67;15.67;;;;;25.08;52.50;100866.28;6146801;23;45282;-66
2023/06/12 09:17:04;;;;;;;;;15.33;13.67;;;;;25.19;52.25;100880.50;6147507;23;45804;-67
2023/06/12 09:19:45;;;;;;;;;14.33;14.33;;;;;25.22;52.28;100878.63;6148393;23;46244;-65
2023/06/12 09:22:11;;;;;;;;;12.67;12.33;;;;;25.23;52.40;100870.38;6121756;23;45356;-66
2023/06/12 09:24:37;;;;;;;;;26.33;23.33;;;;;25.27;52.26;100873.91;6147427;23;45464;-66
2023/06/12 09:27:03;;;;;;;;;18.33;17.00;;;;;25.21;52.03;100864.06;6150131;23;45350;-67
2023/06/12 09:29:30;;;;;;;;;11.33;11.00;;;;;25.16;52.26;100866.94;6148271;23;47811;-65
2023/06/12 09:32:02;;;;;;;;;18.00;15.67;;;;;25.16;52.42;100861.47;6147195;23;45458;-69
2023/06/12 09:34:27;;;;;;;;;17.67;17.67;;;;;25.06;53.43;100879.09;6131623;23;45438;-64
2023/06/12 09:36:55;;;;;;;;;21.00;17.00;;;;;25.02;53.11;100880.16;6159791;23;45089;-63
2023/06/12 09:39:27;;;;;;;;;21.33;19.00;;;;;24.82;53.58;100859.78;6160085;23;46184;-63
2023/06/12 09:41:57;;;;;;;;;18.67;18.00;;;;;24.77;53.69;100850.84;6155909;23;45323;-70
2023/06/12 09:44:25;;;;;;;;;21.67;17.67;;;;;24.91;54.04;100875.00;6161185;23;45150;-67
2023/06/12 09:46:51;;;;;;;;;21.33;18.33;;;;;24.32;54.32;100766.63;6153429;23;45280;-59
2023/06/12 09:49:23;;;;;;;;;15.67;13.00;;;;;25.08;53.79;100879.97;6154404;23;45805;-59
2023/06/12 09:51:50;;;;;;;;;23.67;18.67;;;;;25.07;53.66;100863.59;6153528;23;45492;-65
2023/06/12 09:54:18;;;;;;;;;20.33;17.33;;;;;25.13;53.82;100858.84;6160089;23;45336;-67
2023/06/12 09:56:45;;;;;;;;;18.00;17.00;;;;;25.30;53.47;100873.81;6160563;23;45418;-58
2023/06/12 09:59:18;;;;;;;;;17.33;14.67;;;;;25.14;53.39;100841.47;6137071;23;46287;-59
2023/06/12 10:01:50;;;;;;;;;17.33;13.33;;;;;25.45;53.15;100886.09;6127977;23;45386;-57
2023/06/12 10:04:24;;;;;;;;;13.67;13.67;;;;;25.44;52.67;100881.56;6158722;23;45342;-59
2023/06/12 10:06:55;;;;;;;;;18.00;16.33;;;;;25.05;52.70;100802.63;6152140;23;45252;-57
2023/06/12 10:09:21;;;;;;;;;13.67;13.67;;;;;25.39;52.99;100854.34;6149810;23;45535;-69
2023/06/12 10:11:48;;;;;;;;;16.67;14.00;;;;;25.48;53.04;100881.41;6148881;23;45368;-59
2023/06/12 10:14:14;;;;;;;;;21.00;17.33;;;;;25.36;53.13;100858.09;6148159;23;45245;-59
2023/06/12 10:16:42;;;;;;;;;14.00;12.67;;;;;25.45;53.38;100873.31;6149724;23;45300;-61
2023/06/12 10:19:07;;;;;;;;;16.67;15.67;;;;;25.37;52.79;100872.66;6148532;23;46544;-58
2023/06/12 10:21:33;;;;;;;;;28.33;22.00;;;;;25.22;53.42;100854.00;6148984;23;45496;-57
2023/06/12 10:23:59;;;;;;;;;20.67;16.67;;;;;25.37;53.02;100883.59;6123074;23;45264;-56
2023/06/12 10:26:25;;;;;;;;;25.00;19.33;;;;;25.18;53.48;100839.53;6150283;23;45270;-58
2023/06/12 10:28:54;;;;;;;;;21.33;18.33;;;;;25.16;53.57;100875.13;6149248;23;45236;-59
2023/06/12 10:31:20;;;;;;;;;19.33;16.67;;;;;25.19;53.48;100888.72;6148579;23;45429;-60
2023/06/12 10:34:12;;;;;;;;;21.67;20.67;;;;;25.24;53.88;100880.34;6149260;23;45262;-57
2023/06/12 10:36:46;;;;;;;;;18.00;16.00;;;;;25.30;53.42;100866.50;6149949;23;45508;-58
2023/06/12 10:39:19;;;;;;;;;28.33;18.67;;;;;25.30;53.65;100852.84;6123999;23;48002;-57
2023/06/12 10:41:58;;;;;;;;;23.67;16.33;;;;;25.55;53.03;100872.03;6148666;23;45200;-55
2023/06/12 10:44:31;;;;;;;;;20.33;18.33;;;;;25.53;53.02;100857.53;6148967;23;45562;-59
2023/06/12 10:46:56;;;;;;;;;19.33;18.67;;;;;25.58;53.23;100870.16;6150168;23;45387;-56
2023/06/12 10:49:21;;;;;;;;;22.00;19.33;;;;;25.60;53.09;100874.63;6149081;23;51548;-56
2023/06/12 10:51:48;;;;;;;;;23.33;21.67;;;;;25.64;52.83;100872.66;6148886;23;45279;-56
2023/06/12 10:54:15;;;;;;;;;25.00;20.33;;;;;25.46;52.77;100839.53;6150542;23;45205;-57
2023/06/12 10:56:56;;;;;;;;;22.00;21.00;;;;;25.74;52.36;100880.53;6151159;23;45468;-57
2023/06/12 10:59:29;;;;;;;;;25.33;25.33;;;;;25.69;52.43;100860.63;6148870;23;46907;-58
2023/06/12 11:01:54;;;;;;;;;25.00;18.67;;;;;25.83;52.11;100876.56;6148910;23;45269;-58
2023/06/12 11:04:20;;;;;;;;;24.67;24.00;;;;;25.80;52.11;100864.84;6148906;23;45170;-57
2023/06/12 11:06:47;;;;;;;;;19.67;19.67;;;;;25.84;52.30;100864.69;6149254;23;45517;-55
2023/06/12 11:09:12;;;;;;;;;24.33;19.33;;;;;25.92;52.11;100875.38;6097139;23;46690;-56
2023/06/12 11:11:47;;;;;;;;;21.33;20.00;;;;;25.89;52.42;100862.66;6149178;23;45398;-57